createdAt,value
2023-03-25T00:02:00.004Z,62.58
2023-03-25T00:04:30.758Z,60.75
2023-03-25T00:07:02.131Z,60.26
2023-03-25T00:09:33.106Z,58.63
2023-03-25T00:12:04.793Z,60.44
2023-03-25T00:14:35.408Z,64.12
2023-03-25T00:17:07.179Z,64.87
2023-03-25T00:19:37.977Z,63.45
2023-03-25T00:22:09.119Z,60.55
2023-03-25T00:24:39.778Z,60.13
2023-03-25T00:27:10.695Z,58.32
2023-03-25T00:29:41.324Z,59.34
2023-03-25T00:32:12.362Z,61.05
2023-03-25T00:34:47.755Z,66.13
2023-03-25T00:37:22.042Z,65.99
2023-03-25T00:39:52.649Z,63.38
2023-03-25T00:42:26.634Z,60.01
2023-03-25T00:44:57.696Z,58.46
2023-03-25T00:47:28.674Z,61.03
2023-03-25T00:49:59.381Z,64.33
2023-03-25T00:52:30.514Z,62.11
2023-03-25T00:55:02.384Z,60.06
2023-03-25T00:57:33.517Z,58.59
2023-03-25T01:00:06.732Z,60.97
2023-03-25T01:02:39.549Z,65.03
2023-03-25T01:05:11.810Z,64.74
2023-03-25T01:07:43.146Z,61.26
2023-03-25T01:10:13.905Z,58.62
2023-03-25T01:12:45.293Z,60.26
2023-03-25T01:15:16.333Z,64.24
2023-03-25T01:17:47.513Z,63.41
2023-03-25T01:20:19.127Z,59.17
2023-03-25T01:22:50.733Z,59.83
2023-03-25T01:25:21.506Z,63.91
2023-03-25T01:27:52.655Z,64.29
2023-03-25T01:30:23.699Z,62.63
2023-03-25T01:32:54.868Z,58.41
2023-03-25T01:35:25.985Z,60.31
2023-03-25T01:37:57.058Z,63.30
2023-03-25T01:40:27.888Z,61.38
2023-03-25T01:42:59.201Z,59.27
2023-03-25T01:45:30.974Z,62.64
2023-03-25T01:48:04.865Z,63.75
2023-03-25T01:50:36.338Z,60.19
2023-03-25T01:53:07.926Z,58.93
2023-03-25T01:55:40.556Z,62.31
2023-03-25T01:58:15.604Z,64.62
2023-03-25T02:00:48.092Z,62.30
2023-03-25T02:03:22.002Z,59.52
2023-03-25T02:05:55.378Z,58.33
2023-03-25T02:08:28.139Z,62.08
2023-03-25T02:10:59.286Z,64.51
2023-03-25T02:13:30.226Z,60.90
2023-03-25T02:16:15.699Z,58.92
2023-03-25T02:18:50.733Z,62.73
2023-03-25T02:21:38.056Z,62.19
2023-03-25T02:24:15.935Z,58.49
2023-03-25T02:27:00.240Z,60.37
2023-03-25T02:29:39.136Z,63.71
2023-03-25T02:32:17.630Z,60.56
2023-03-25T02:34:59.910Z,59.33
2023-03-25T02:37:51.715Z,62.84
2023-03-25T02:40:27.231Z,62.82
2023-03-25T02:42:56.484Z,58.40
2023-03-25T02:45:30.403Z,60.66
2023-03-25T02:48:03.682Z,64.02
2023-03-25T02:50:37.531Z,60.28
2023-03-25T02:53:11.319Z,60.85
2023-03-25T02:55:44.887Z,63.80
2023-03-25T02:58:18.242Z,61.48
2023-03-25T03:00:47.178Z,59.00
2023-03-25T03:03:17.809Z,60.69
2023-03-25T03:05:51.393Z,64.23
2023-03-25T03:08:35.846Z,63.07
2023-03-25T03:11:12.839Z,59.33
2023-03-25T03:14:09.323Z,61.00
2023-03-25T03:16:48.703Z,64.36
2023-03-25T03:19:27.662Z,62.44
2023-03-25T03:22:01.900Z,60.08
2023-03-25T03:24:33.858Z,59.84
2023-03-25T03:27:10.619Z,63.24
2023-03-25T03:29:46.098Z,62.58
2023-03-25T03:32:19.648Z,60.40
2023-03-25T03:34:53.220Z,61.06
2023-03-25T03:37:25.453Z,63.26
2023-03-25T03:39:56.799Z,62.04
2023-03-25T03:42:31.316Z,57.65
2023-03-25T03:45:03.899Z,60.34
2023-03-25T03:47:37.772Z,62.58
2023-03-25T03:50:10.903Z,58.74
2023-03-25T03:52:43.264Z,58.33
2023-03-25T03:55:15.753Z,60.35
2023-03-25T03:57:47.904Z,63.07
2023-03-25T04:00:21.255Z,60.16
2023-03-25T04:02:50.664Z,57.28
2023-03-25T04:05:23.135Z,58.96
2023-03-25T04:08:00.462Z,60.46
2023-03-25T04:10:39.532Z,61.61
2023-03-25T04:13:11.738Z,62.58
2023-03-25T04:15:42.756Z,59.31
2023-03-25T04:18:13.939Z,57.97
2023-03-25T04:20:49.807Z,60.60
2023-03-25T04:23:21.600Z,61.66
2023-03-25T04:25:53.564Z,57.06
2023-03-25T04:28:26.146Z,57.15
2023-03-25T04:30:57.986Z,59.67
2023-03-25T04:33:30.525Z,61.03
2023-03-25T04:36:02.187Z,62.50
2023-03-25T04:38:33.139Z,60.70
2023-03-25T04:41:07.072Z,58.42
2023-03-25T04:43:39.939Z,59.90
2023-03-25T04:46:12.388Z,62.51
2023-03-25T04:48:45.673Z,63.75
2023-03-25T04:51:16.817Z,58.77
2023-03-25T04:53:48.165Z,57.61
2023-03-25T04:56:19.721Z,60.21
2023-03-25T04:58:50.562Z,62.47
2023-03-25T05:01:24.062Z,60.11
2023-03-25T05:03:55.085Z,58.78
2023-03-25T05:06:26.358Z,61.62
2023-03-25T05:08:57.172Z,63.95
2023-03-25T05:11:28.103Z,61.34
2023-03-25T05:13:59.261Z,58.65
2023-03-25T05:16:30.462Z,57.98
2023-03-25T05:19:01.267Z,61.67
2023-03-25T05:21:32.984Z,63.29
2023-03-25T05:24:03.719Z,60.83
2023-03-25T05:26:35.574Z,58.33
2023-03-25T05:29:07.540Z,59.97
2023-03-25T05:31:38.842Z,63.73
2023-03-25T05:34:10.194Z,59.87
2023-03-25T05:36:42.847Z,60.81
2023-03-25T05:39:13.854Z,63.92
2023-03-25T05:41:46.160Z,60.48
2023-03-25T05:44:19.719Z,60.52
2023-03-25T05:46:51.512Z,63.56
2023-03-25T05:49:22.329Z,61.49
2023-03-25T05:51:54.276Z,57.85
2023-03-25T05:54:26.131Z,61.78
2023-03-25T05:56:58.177Z,62.96
2023-03-25T05:59:29.029Z,59.80
2023-03-25T06:02:01.257Z,60.48
2023-03-25T06:04:34.604Z,63.47
2023-03-25T06:07:09.278Z,61.43
2023-03-25T06:09:46.650Z,59.62
2023-03-25T06:12:20.074Z,62.65
2023-03-25T06:14:54.569Z,62.50
2023-03-25T06:17:25.472Z,59.40
2023-03-25T06:19:56.100Z,59.19
2023-03-25T06:22:27.748Z,62.75
2023-03-25T06:24:58.218Z,60.95
2023-03-25T06:27:29.289Z,59.85
2023-03-25T06:29:59.907Z,58.28
2023-03-25T06:43:11.298Z,62.05
2023-03-25T06:46:01.114Z,63.39
2023-03-25T06:48:55.365Z,59.85
2023-03-25T06:51:26.617Z,58.82
2023-03-25T06:53:57.291Z,63.08
2023-03-25T06:56:28.457Z,61.29
2023-03-25T06:58:59.257Z,58.44
2023-03-25T07:01:30.295Z,60.53
2023-03-25T07:04:01.008Z,63.46
2023-03-25T07:06:32.748Z,62.03
2023-03-25T07:09:04.691Z,59.70
2023-03-25T07:11:36.268Z,58.09
2023-03-25T07:14:07.512Z,61.62
2023-03-25T07:16:38.398Z,64.28
2023-03-25T07:19:09.391Z,63.20
2023-03-25T07:21:40.424Z,57.97
2023-03-25T07:24:11.363Z,59.16
2023-03-25T07:26:42.421Z,61.14
2023-03-25T07:29:13.652Z,63.65
2023-03-25T07:31:44.306Z,60.43
2023-03-25T07:34:15.222Z,58.38
2023-03-25T07:36:46.167Z,60.57
2023-03-25T07:39:18.961Z,63.62
2023-03-25T07:41:50.250Z,61.67
2023-03-25T07:44:32.084Z,58.34
2023-03-25T07:47:03.224Z,60.32
2023-03-25T07:49:34.478Z,63.83
2023-03-25T07:52:06.025Z,62.46
2023-03-25T07:54:37.375Z,58.63
2023-03-25T07:57:08.944Z,60.40
2023-03-25T07:59:39.654Z,63.41
2023-03-25T08:02:13.491Z,63.21
2023-03-25T08:04:44.393Z,58.37
2023-03-25T08:07:15.126Z,59.54
2023-03-25T08:09:45.974Z,62.66
2023-03-25T08:12:16.934Z,60.23
2023-03-25T08:14:48.142Z,59.94
2023-03-25T08:17:18.885Z,63.17
2023-03-25T08:19:49.746Z,62.82
2023-03-25T08:22:20.446Z,59.06
2023-03-25T08:24:52.017Z,58.73
2023-03-25T08:27:22.833Z,61.77
2023-03-25T08:29:57.794Z,63.51
2023-03-25T08:32:29.035Z,59.85
2023-03-25T08:34:59.850Z,60.40
2023-03-25T08:37:30.990Z,61.49
2023-03-25T08:40:01.828Z,62.07
2023-03-25T08:42:32.869Z,59.05
2023-03-25T08:45:04.342Z,58.25
2023-03-25T08:47:35.505Z,60.29
2023-03-25T08:50:07.335Z,61.81
2023-03-25T08:52:38.172Z,62.12
2023-03-25T08:55:12.167Z,57.36
2023-03-25T08:57:43.280Z,56.45
2023-03-25T09:00:15.155Z,57.58
2023-03-25T09:02:46.456Z,58.47
2023-03-25T09:05:17.582Z,58.78
2023-03-25T09:07:48.325Z,58.68
2023-03-25T09:10:19.237Z,58.90
2023-03-25T09:12:49.895Z,59.01
2023-03-25T09:15:21.437Z,58.86
2023-03-25T09:17:52.382Z,58.92
2023-03-25T09:20:23.183Z,57.61
2023-03-25T09:22:54.478Z,57.18
2023-03-25T09:25:26.132Z,56.96
2023-03-25T09:27:57.325Z,56.73
2023-03-25T09:30:28.163Z,56.63
2023-03-25T09:32:58.841Z,56.78
2023-03-25T09:35:30.070Z,56.41
2023-03-25T09:38:00.802Z,55.53
2023-03-25T09:40:32.062Z,54.52
2023-03-25T09:43:05.625Z,53.58
2023-03-25T09:45:39.236Z,50.96
2023-03-25T09:48:17.319Z,52.07
2023-03-25T09:50:49.014Z,52.60
2023-03-25T09:53:25.005Z,52.80
2023-03-25T09:55:56.389Z,52.65
2023-03-25T09:58:30.386Z,53.00
2023-03-25T10:01:04.964Z,53.14
2023-03-25T10:03:37.200Z,53.19
2023-03-25T10:06:20.578Z,53.62
2023-03-25T10:08:49.652Z,53.88
2023-03-25T10:11:23.564Z,52.99
2023-03-25T10:13:57.218Z,53.70
2023-03-25T10:16:35.016Z,53.26
2023-03-25T10:19:16.948Z,52.72
2023-03-25T10:21:51.562Z,52.75
2023-03-25T10:24:23.924Z,53.08
2023-03-25T10:26:56.057Z,53.29
2023-03-25T10:29:29.247Z,52.52
2023-03-25T10:31:58.126Z,51.74
2023-03-25T10:34:35.038Z,51.69
2023-03-25T10:37:12.661Z,51.99
2023-03-25T10:39:46.027Z,52.65
2023-03-25T10:42:16.010Z,52.54
2023-03-25T10:44:46.976Z,52.74
2023-03-25T10:47:19.861Z,53.51
2023-03-25T10:49:51.779Z,54.08
2023-03-25T10:52:22.471Z,54.74
2023-03-25T10:54:55.101Z,53.91
2023-03-25T10:57:27.602Z,53.92
2023-03-25T10:59:57.272Z,53.25
2023-03-25T11:02:29.364Z,51.92
2023-03-25T11:05:01.872Z,51.87
2023-03-25T11:07:34.334Z,51.04
2023-03-25T11:10:16.071Z,51.66
2023-03-25T11:12:48.420Z,51.34
2023-03-25T11:15:20.450Z,51.57
2023-03-25T11:17:58.512Z,51.18
2023-03-25T11:20:31.541Z,50.62
2023-03-25T11:23:06.406Z,50.29
2023-03-25T11:25:42.239Z,49.85
2023-03-25T11:28:16.470Z,49.55
2023-03-25T11:31:01.275Z,48.98
2023-03-25T11:33:32.142Z,48.76
2023-03-25T11:36:11.687Z,47.90
2023-03-25T11:38:42.827Z,46.80
2023-03-25T11:41:14.973Z,47.70
2023-03-25T11:43:49.410Z,48.08
2023-03-25T11:46:22.043Z,46.58
2023-03-25T11:48:53.337Z,45.83
2023-03-25T11:51:25.528Z,46.70
2023-03-25T11:53:58.719Z,47.03
2023-03-25T11:56:31.673Z,46.98
2023-03-25T11:59:03.492Z,46.85
2023-03-25T12:01:39.100Z,48.07
2023-03-25T12:04:17.392Z,49.85
2023-03-25T12:06:59.087Z,51.91
2023-03-25T12:09:31.885Z,53.72
2023-03-25T12:12:16.835Z,55.44
2023-03-25T12:14:54.224Z,57.11
2023-03-25T12:17:30.111Z,58.84
2023-03-25T12:20:08.592Z,60.32
2023-03-25T12:22:47.008Z,61.61
2023-03-25T12:25:26.664Z,61.36
2023-03-25T12:28:06.606Z,57.62
2023-03-25T12:30:46.853Z,58.77
2023-03-25T12:33:23.483Z,61.13
2023-03-25T12:36:02.962Z,63.48
2023-03-25T12:38:43.641Z,59.85
2023-03-25T12:41:21.487Z,59.35
2023-03-25T12:44:00.141Z,61.32
2023-03-25T12:46:51.463Z,61.47
2023-03-25T12:49:30.619Z,58.63
2023-03-25T12:52:04.937Z,60.20
2023-03-25T12:54:42.203Z,62.42
2023-03-25T12:57:18.067Z,57.57
2023-03-25T13:00:01.295Z,57.58
2023-03-25T13:02:39.397Z,59.96
2023-03-25T13:05:17.207Z,59.65
2023-03-25T13:07:50.333Z,58.75
2023-03-25T13:10:19.314Z,56.09
2023-03-25T13:12:52.326Z,53.21
2023-03-25T13:15:26.988Z,50.22
2023-03-25T13:18:00.458Z,50.20
2023-03-25T13:20:33.358Z,51.37
2023-03-25T13:23:07.226Z,51.21
2023-03-25T13:25:44.060Z,50.67
2023-03-25T13:28:16.793Z,50.90
2023-03-25T13:30:49.336Z,51.50
2023-03-25T13:33:22.481Z,51.33
2023-03-25T13:35:54.926Z,51.52
2023-03-25T13:38:28.883Z,51.18
2023-03-25T13:41:09.319Z,50.25
2023-03-25T13:43:45.190Z,50.61
2023-03-25T13:46:17.476Z,50.15
2023-03-25T13:48:51.481Z,49.97
2023-03-25T13:51:22.180Z,48.96
2023-03-25T13:53:56.023Z,47.72
2023-03-25T13:56:43.638Z,47.37
2023-03-25T13:59:26.179Z,46.60
2023-03-25T14:02:10.083Z,45.97
2023-03-25T14:04:48.867Z,46.04
2023-03-25T14:07:36.852Z,45.82
2023-03-25T14:10:25.076Z,45.97
2023-03-25T14:12:57.768Z,45.86
2023-03-25T14:15:30.819Z,45.21
2023-03-25T14:18:01.805Z,45.68
2023-03-25T14:20:34.905Z,46.91
2023-03-25T14:23:07.166Z,48.60
2023-03-25T14:25:40.509Z,49.91
2023-03-25T14:28:13.653Z,51.29
2023-03-25T14:30:46.206Z,52.09
2023-03-25T14:33:19.961Z,52.88
2023-03-25T14:35:51.756Z,53.57
2023-03-25T14:38:43.495Z,53.57
2023-03-25T14:41:14.828Z,52.99
2023-03-25T14:43:48.715Z,52.42
2023-03-25T14:46:22.128Z,52.54
2023-03-25T14:48:54.638Z,52.63
2023-03-25T14:51:43.058Z,52.51
2023-03-25T14:54:22.028Z,52.41
2023-03-25T14:56:58.536Z,51.69
2023-03-25T14:59:32.184Z,51.35
2023-03-25T15:02:05.206Z,51.61
2023-03-25T15:04:34.297Z,51.96
2023-03-25T15:07:06.445Z,52.12
2023-03-25T15:09:46.055Z,52.53
2023-03-25T15:12:18.719Z,52.70
2023-03-25T15:14:50.394Z,53.00
2023-03-25T15:17:34.946Z,52.76
2023-03-25T15:20:31.889Z,52.90
2023-03-25T15:23:16.135Z,52.60
2023-03-25T15:25:47.450Z,49.47
2023-03-25T15:28:24.057Z,48.48
2023-03-25T15:31:06.857Z,47.60
2023-03-25T15:33:46.410Z,47.44
2023-03-25T15:36:28.212Z,47.51
2023-03-25T15:39:08.407Z,47.90
2023-03-25T15:41:52.924Z,48.31
2023-03-25T15:44:49.651Z,47.52
2023-03-25T15:47:29.936Z,47.34
2023-03-25T15:50:13.915Z,47.15
2023-03-25T15:53:03.664Z,47.24
2023-03-25T15:55:38.433Z,47.45
2023-03-25T15:58:13.388Z,47.44
2023-03-25T16:00:47.425Z,47.81
2023-03-25T16:03:21.362Z,48.47
2023-03-25T16:05:53.690Z,49.81
2023-03-25T16:08:27.011Z,50.95
2023-03-25T16:10:57.630Z,51.42
2023-03-25T16:13:28.748Z,52.01
2023-03-25T16:16:00.367Z,52.30
2023-03-25T16:18:31.652Z,52.45
2023-03-25T16:21:03.725Z,51.97
2023-03-25T16:23:36.695Z,51.55
2023-03-25T16:26:07.946Z,51.46
2023-03-25T16:28:43.000Z,51.21
2023-03-25T16:31:28.841Z,51.12
2023-03-25T16:34:01.196Z,50.72
2023-03-25T16:36:32.124Z,50.37
2023-03-25T16:39:06.276Z,50.61
2023-03-25T16:41:37.290Z,50.93
2023-03-25T16:44:09.499Z,51.18
2023-03-25T16:46:40.397Z,51.99
2023-03-25T16:49:15.886Z,52.61
2023-03-25T16:51:46.937Z,53.02
2023-03-25T16:54:24.597Z,53.52
2023-03-25T16:56:55.250Z,53.90
2023-03-25T16:59:28.748Z,54.19
2023-03-25T17:02:00.525Z,54.55
2023-03-25T17:04:42.275Z,55.21
2023-03-25T17:07:14.919Z,55.76
2023-03-25T17:09:50.518Z,55.98
2023-03-25T17:12:21.780Z,56.38
2023-03-25T17:14:54.340Z,56.82
2023-03-25T17:17:33.586Z,57.03
2023-03-25T17:20:08.845Z,57.47
2023-03-25T17:22:40.714Z,57.79
2023-03-25T17:25:19.084Z,58.16
2023-03-25T17:27:49.696Z,58.18
2023-03-25T17:30:22.088Z,58.76
2023-03-25T17:32:53.680Z,59.05
2023-03-25T17:35:27.779Z,59.69
2023-03-25T17:37:59.087Z,60.12
2023-03-25T17:40:30.612Z,60.43
2023-03-25T17:43:01.681Z,60.29
2023-03-25T17:45:32.637Z,60.34
2023-03-25T17:48:03.484Z,60.43
2023-03-25T17:50:34.495Z,60.74
2023-03-25T17:53:05.026Z,60.92
2023-03-25T17:55:36.230Z,60.73
2023-03-25T17:58:07.314Z,60.63
2023-03-25T18:00:38.630Z,60.76
2023-03-25T18:03:12.762Z,60.70
2023-03-25T18:05:43.952Z,60.72
2023-03-25T18:08:15.464Z,60.92
2023-03-25T18:10:46.606Z,61.22
2023-03-25T18:13:17.245Z,61.41
2023-03-25T18:15:48.000Z,61.25
2023-03-25T18:18:19.479Z,61.45
2023-03-25T18:20:51.078Z,61.59
2023-03-25T18:23:21.837Z,61.77
2023-03-25T18:25:52.873Z,61.86
2023-03-25T18:28:25.015Z,62.04
2023-03-25T18:30:57.418Z,62.39
2023-03-25T18:33:34.220Z,63.07
2023-03-25T18:36:06.195Z,59.05
2023-03-25T18:38:36.981Z,56.50
2023-03-25T18:41:09.130Z,57.60
2023-03-25T18:43:39.766Z,59.12
2023-03-25T18:46:12.360Z,60.31
2023-03-25T18:48:44.304Z,61.42
2023-03-25T18:51:15.297Z,62.35
2023-03-25T18:53:47.615Z,61.77
2023-03-25T18:56:20.816Z,57.35
2023-03-25T18:58:51.641Z,57.68
2023-03-25T19:01:23.141Z,59.70
2023-03-25T19:03:53.924Z,60.53
2023-03-25T19:06:25.412Z,61.66
2023-03-25T19:08:57.639Z,63.22
2023-03-25T19:11:31.040Z,57.85
2023-03-25T19:14:02.232Z,57.12
2023-03-25T19:16:33.482Z,59.06
2023-03-25T19:19:04.852Z,60.48
2023-03-25T19:21:35.706Z,62.30
2023-03-25T19:24:07.263Z,61.76
2023-03-25T19:26:39.640Z,57.91
2023-03-25T19:29:10.586Z,58.20
2023-03-25T19:31:42.711Z,59.91
2023-03-25T19:34:13.500Z,61.63
2023-03-25T19:36:47.193Z,63.40
2023-03-25T19:39:19.200Z,61.33
2023-03-25T19:41:51.922Z,56.68
2023-03-25T19:44:22.715Z,57.40
2023-03-25T19:46:53.920Z,59.71
2023-03-25T19:49:38.757Z,60.83
2023-03-25T19:52:11.139Z,63.05
2023-03-25T19:54:42.603Z,60.68
2023-03-25T19:57:13.905Z,57.59
2023-03-25T19:59:45.392Z,57.53
2023-03-25T20:02:17.329Z,58.62
2023-03-25T20:04:48.698Z,59.06
2023-03-25T20:07:20.706Z,61.18
2023-03-25T20:09:51.599Z,63.93
2023-03-25T20:12:22.743Z,60.90
2023-03-25T20:14:53.486Z,56.32
2023-03-25T20:17:24.755Z,57.18
2023-03-25T20:19:55.431Z,57.77
2023-03-25T20:22:26.790Z,58.59
2023-03-25T20:24:57.755Z,59.69
2023-03-25T20:27:29.526Z,60.46
2023-03-25T20:30:00.457Z,61.56
2023-03-25T20:32:40.546Z,64.55
2023-03-25T20:35:14.101Z,67.17
2023-03-25T20:37:45.885Z,62.84
2023-03-25T20:40:17.935Z,57.89
2023-03-25T20:42:49.458Z,56.19
2023-03-25T20:45:21.422Z,57.78
2023-03-25T20:47:52.464Z,59.47
2023-03-25T20:50:23.713Z,61.03
2023-03-25T20:52:55.264Z,61.89
2023-03-25T20:55:25.982Z,65.05
2023-03-25T20:57:56.996Z,61.84
2023-03-25T21:00:28.327Z,57.99
2023-03-25T21:02:59.755Z,58.41
2023-03-25T21:05:30.449Z,61.11
2023-03-25T21:08:01.835Z,61.77
2023-03-25T21:10:32.552Z,64.70
2023-03-25T21:13:07.477Z,60.99
2023-03-25T21:15:40.076Z,58.52
2023-03-25T21:18:11.183Z,60.49
2023-03-25T21:20:41.870Z,64.14
2023-03-25T21:23:13.069Z,62.62
2023-03-25T21:25:43.589Z,58.00
2023-03-25T21:28:18.144Z,58.05
2023-03-25T21:30:50.297Z,59.58
2023-03-25T21:33:21.432Z,62.37
2023-03-25T21:35:54.455Z,61.66
2023-03-25T21:38:29.549Z,56.67
2023-03-25T21:41:01.192Z,57.62
2023-03-25T21:43:32.483Z,60.49
2023-03-25T21:46:05.500Z,62.48
2023-03-25T21:48:38.568Z,60.88
2023-03-25T21:51:14.511Z,58.17
2023-03-25T21:53:46.570Z,60.11
2023-03-25T21:56:19.940Z,61.19
2023-03-25T21:58:52.122Z,62.21
2023-03-25T22:01:28.860Z,62.82
2023-03-25T22:04:00.857Z,59.02
2023-03-25T22:06:33.573Z,56.01
2023-03-25T22:09:06.307Z,57.59
2023-03-25T22:11:37.809Z,59.27
2023-03-25T22:14:09.947Z,59.80
2023-03-25T22:16:40.872Z,60.33
2023-03-25T22:19:13.131Z,60.69
2023-03-25T22:21:43.869Z,60.86
2023-03-25T22:24:14.575Z,60.63
2023-03-25T22:26:45.312Z,60.87
2023-03-25T22:29:16.351Z,61.03
2023-03-25T22:31:47.116Z,61.27
2023-03-25T22:34:18.216Z,61.56
2023-03-25T22:36:51.109Z,61.61
2023-03-25T22:39:23.402Z,61.71
2023-03-25T22:41:54.310Z,61.63
2023-03-25T22:44:26.143Z,61.63
2023-03-25T22:46:57.001Z,61.94
2023-03-25T22:49:28.068Z,61.26
2023-03-25T22:51:58.894Z,61.63
2023-03-25T22:54:29.867Z,61.60
2023-03-25T22:57:00.992Z,61.82
2023-03-25T22:59:32.218Z,61.60
2023-03-25T23:02:05.061Z,61.24
2023-03-25T23:04:36.074Z,60.86
2023-03-25T23:07:08.609Z,60.69
2023-03-25T23:09:42.673Z,60.84
2023-03-25T23:12:14.565Z,61.20
2023-03-25T23:14:49.526Z,61.65
2023-03-25T23:17:20.454Z,62.02
2023-03-25T23:19:51.508Z,62.33
2023-03-25T23:22:22.654Z,60.41
2023-03-25T23:24:53.611Z,56.08
2023-03-25T23:27:25.551Z,57.62
2023-03-25T23:29:57.096Z,59.42
2023-03-25T23:32:28.146Z,60.90
2023-03-25T23:35:00.415Z,62.19
2023-03-25T23:37:31.587Z,60.98
2023-03-25T23:40:02.882Z,57.94
2023-03-25T23:42:35.428Z,59.06
2023-03-25T23:45:07.855Z,60.69
2023-03-25T23:47:38.696Z,62.56
2023-03-25T23:50:11.773Z,58.65
2023-03-25T23:52:43.010Z,58.34
2023-03-25T23:55:14.357Z,60.59
2023-03-25T23:57:45.088Z,62.40
